GCFV METAR and TAF | Updated Today

GCFV METAR

Fuerteventura Airport

Observation time: 27 min. ago

GCFV 291200Z 08009KT 9999 FEW035 23/13 Q1016

Need help? Read our tutorial on how to read METARs or read the parsed version below.

Fuerteventura Airport (GCFV) METAR

  • Weather conditions on Sun, 29 May 2022 12:00:00 +0000 (27 min. ago):
  • Present conditions: Dry
  • Clouds: A few at 1067 meters
  • Visibility: Greater than 10 km
  • Wind: 80 degrees at 9 knots
  • Temperature: 23 celsius
  • Dew point: 13 celsius
  • Pressure: 1016 millibars
  • Remarks: None


Useful to know...

GCFV TAF

Fuerteventura Airport

TAF GCFV 290800Z 2909/3009 09009KT 9999 FEW030 TX24/2914Z TN18/3006Z BECMG 2910/2912 12010KT BECMG 2918/2920 33004KT
Observation time: 4:27 hr. ago
Need help? Read our tutorial on how to read TAFs or read the parsed version below.

Parsed version of TAF for Fuerteventura Airport (GCFV)

  • From 29 May at 09:00 UTC, to day 30 of the month at 09:00 UTC
  • Clouds: A few at 914 meters
  • Visibility: Greater than 10 km
  • Wind: 90 degrees at 9
  • Expected to arise soon, from 29 May at 10:00 UTC, to day 29 of the month at 12:00 UTC
  • Wind: 120 degrees at 10
  • Expected to arise soon, from 29 May at 18:00 UTC, to day 29 of the month at 20:00 UTC
  • Wind: 330 degrees at 4